createdAt,value
2024-04-07T00:00:17.179Z,88904.00
2024-04-07T00:01:17.223Z,88896.00
2024-04-07T00:02:17.319Z,88900.00
2024-04-07T00:03:17.327Z,88903.00
2024-04-07T00:04:17.396Z,88904.00
2024-04-07T00:05:17.428Z,88906.00
2024-04-07T00:06:17.535Z,88909.00
2024-04-07T00:07:17.540Z,88910.00
2024-04-07T00:08:17.594Z,88906.00
2024-04-07T00:09:17.630Z,88910.00
2024-04-07T00:10:17.685Z,88913.00
2024-04-07T00:11:17.717Z,88909.00
2024-04-07T00:12:17.762Z,88906.00
2024-04-07T00:13:17.780Z,88904.00
2024-04-07T00:14:17.840Z,88902.00
2024-04-07T00:15:17.866Z,88899.00
2024-04-07T00:16:17.922Z,88897.00
2024-04-07T00:17:17.980Z,88895.00
2024-04-07T00:18:18.003Z,88894.00
2024-04-07T00:19:18.067Z,88898.00
2024-04-07T00:20:18.130Z,88892.00
2024-04-07T00:21:18.178Z,88891.00
2024-04-07T00:22:18.252Z,88885.00
2024-04-07T00:23:18.289Z,88891.00
2024-04-07T00:24:18.342Z,88893.00
2024-04-07T00:25:18.379Z,88887.00
2024-04-07T00:26:18.399Z,88882.00
2024-04-07T00:27:18.468Z,88884.00
2024-04-07T00:28:18.503Z,88878.00
2024-04-07T00:29:18.565Z,88879.00
2024-04-07T00:30:18.624Z,88884.00
2024-04-07T00:31:18.618Z,88882.00
2024-04-07T00:32:18.639Z,88878.00
2024-04-07T00:33:18.634Z,88882.00
2024-04-07T00:34:18.633Z,88884.00
2024-04-07T00:35:18.627Z,88882.00
2024-04-07T00:36:18.642Z,88879.00
2024-04-07T00:37:18.640Z,88880.00
2024-04-07T00:38:18.640Z,88889.00
2024-04-07T00:39:18.640Z,88888.00
2024-04-07T00:40:18.646Z,88884.00
2024-04-07T00:41:18.692Z,88889.00
2024-04-07T00:42:18.743Z,88888.00
2024-04-07T00:43:18.806Z,88885.00
2024-04-07T00:44:18.845Z,88886.00
2024-04-07T00:45:18.896Z,88888.00
2024-04-07T00:46:18.941Z,88884.00
2024-04-07T00:47:18.992Z,88889.00
2024-04-07T00:48:19.031Z,88891.00
2024-04-07T00:49:19.079Z,88888.00
2024-04-07T00:50:19.147Z,88889.00
2024-04-07T00:51:19.194Z,88893.00
2024-04-07T00:52:19.264Z,88891.00
2024-04-07T00:53:19.292Z,88884.00
2024-04-07T00:54:19.331Z,88881.00
2024-04-07T00:55:19.393Z,88879.00
2024-04-07T00:56:19.454Z,88880.00
2024-04-07T00:57:19.509Z,88878.00
2024-04-07T00:58:19.572Z,88879.00
2024-04-07T00:59:19.621Z,88878.00
2024-04-07T01:00:19.667Z,88873.00
2024-04-07T01:01:19.729Z,88868.00
2024-04-07T01:02:19.773Z,88872.00
2024-04-07T01:03:19.823Z,88876.00
2024-04-07T01:04:19.891Z,88876.00
2024-04-07T01:05:19.940Z,88876.00
2024-04-07T01:06:20.000Z,88876.00
2024-04-07T01:07:20.053Z,88885.00
2024-04-07T01:08:20.116Z,88880.00
2024-04-07T01:09:20.161Z,88885.00
2024-04-07T01:10:20.211Z,88884.00
2024-04-07T01:11:20.267Z,88891.00
2024-04-07T01:12:20.331Z,88893.00
2024-04-07T01:13:20.379Z,88892.00
2024-04-07T01:14:20.444Z,88891.00
2024-04-07T01:15:20.506Z,88892.00
2024-04-07T01:16:20.545Z,88890.00
2024-04-07T01:17:20.607Z,88888.00
2024-04-07T01:18:20.670Z,88887.00
2024-04-07T01:19:20.708Z,88889.00
2024-04-07T01:20:20.783Z,88891.00
2024-04-07T01:21:20.832Z,88892.00
2024-04-07T01:22:20.996Z,88896.00
2024-04-07T01:23:20.998Z,88893.00
2024-04-07T01:24:21.009Z,88900.00
2024-04-07T01:25:21.071Z,88900.00
2024-04-07T01:26:21.111Z,88902.00
2024-04-07T01:27:21.181Z,88903.00
2024-04-07T01:28:21.251Z,88905.00
2024-04-07T01:29:21.244Z,88906.00
2024-04-07T01:30:21.257Z,88909.00
2024-04-07T01:31:21.243Z,88910.00
2024-04-07T01:32:21.262Z,88905.00
2024-04-07T01:33:21.261Z,88906.00
2024-04-07T01:34:21.252Z,88905.00
2024-04-07T01:35:21.259Z,88903.00
2024-04-07T01:36:21.261Z,88899.00
2024-04-07T01:37:21.271Z,88902.00
2024-04-07T01:38:21.307Z,88900.00
2024-04-07T01:39:21.358Z,88901.00
2024-04-07T01:40:21.425Z,88895.00
2024-04-07T01:41:21.493Z,88902.00
2024-04-07T01:42:21.557Z,88903.00
2024-04-07T01:43:21.611Z,88897.00
2024-04-07T01:44:21.685Z,88901.00
2024-04-07T01:45:21.714Z,88905.00
2024-04-07T01:46:21.778Z,88910.00
2024-04-07T01:47:21.826Z,88907.00
2024-04-07T01:48:21.854Z,88911.00
2024-04-07T01:49:21.902Z,88910.00
2024-04-07T01:50:21.955Z,88910.00
2024-04-07T01:51:21.985Z,88913.00
2024-04-07T01:52:22.065Z,88915.00
2024-04-07T01:53:22.100Z,88911.00
2024-04-07T01:54:22.188Z,88909.00
2024-04-07T01:55:22.246Z,88907.00
2024-04-07T01:56:22.299Z,88910.00
2024-04-07T01:57:22.358Z,88910.00
2024-04-07T01:58:22.414Z,88907.00
2024-04-07T01:59:22.475Z,88907.00
2024-04-07T02:00:22.534Z,88906.00
2024-04-07T02:01:22.596Z,88903.00
2024-04-07T02:02:22.642Z,88901.00
2024-04-07T02:03:22.716Z,88900.00
2024-04-07T02:04:22.769Z,88903.00
2024-04-07T02:05:22.804Z,88898.00
2024-04-07T02:06:22.835Z,88896.00
2024-04-07T02:07:22.926Z,88894.00
2024-04-07T02:08:22.929Z,88899.00
2024-04-07T02:09:22.985Z,88895.00
2024-04-07T02:10:23.015Z,88891.00
2024-04-07T02:11:23.069Z,88887.00
2024-04-07T02:12:23.117Z,88885.00
2024-04-07T02:13:23.177Z,88885.00
2024-04-07T02:14:23.235Z,88893.00
2024-04-07T02:15:23.298Z,88891.00
2024-04-07T02:16:23.374Z,88887.00
2024-04-07T02:17:23.426Z,88891.00
2024-04-07T02:18:23.454Z,88891.00
2024-04-07T02:19:23.476Z,88888.00
2024-04-07T02:20:23.478Z,88896.00
2024-04-07T02:21:23.468Z,88895.00
2024-04-07T02:22:23.461Z,88896.00
2024-04-07T02:23:23.471Z,88899.00
2024-04-07T02:24:23.474Z,88896.00
2024-04-07T02:25:23.480Z,88896.00
2024-04-07T02:26:23.477Z,88898.00
2024-04-07T02:27:23.487Z,88900.00
2024-04-07T02:28:23.479Z,88895.00
2024-04-07T02:29:23.507Z,88895.00
2024-04-07T02:30:23.547Z,88895.00
2024-04-07T02:31:23.620Z,88892.00
2024-04-07T02:32:23.660Z,88887.00
2024-04-07T02:33:23.720Z,88890.00
2024-04-07T02:34:23.781Z,88884.00
2024-04-07T02:35:23.833Z,88886.00
2024-04-07T02:36:23.874Z,88883.00
2024-04-07T02:37:23.924Z,88888.00
2024-04-07T02:38:23.989Z,88888.00
2024-04-07T02:39:24.063Z,88888.00
2024-04-07T02:40:24.117Z,88888.00
2024-04-07T02:41:24.183Z,88879.00
2024-04-07T02:42:24.238Z,88884.00
2024-04-07T02:43:24.276Z,88882.00
2024-04-07T02:44:24.307Z,88881.00
2024-04-07T02:45:24.365Z,88883.00
2024-04-07T02:46:24.417Z,88887.00
2024-04-07T02:47:24.427Z,88885.00
2024-04-07T02:48:24.423Z,88886.00
2024-04-07T02:49:24.432Z,88885.00
2024-04-07T02:50:24.418Z,88890.00
2024-04-07T02:51:24.439Z,88888.00
2024-04-07T02:52:24.427Z,88886.00
2024-04-07T02:53:24.423Z,88887.00
2024-04-07T02:54:24.427Z,88883.00
2024-04-07T02:55:24.440Z,88883.00
2024-04-07T02:56:24.431Z,88888.00
2024-04-07T02:57:24.451Z,88881.00
2024-04-07T02:58:24.451Z,88884.00
2024-04-07T02:59:27.974Z,88886.00
2024-04-07T03:00:24.442Z,88887.00
2024-04-07T03:01:24.446Z,88885.00
2024-04-07T03:02:24.455Z,88888.00
2024-04-07T03:03:24.445Z,88884.00
2024-04-07T03:04:24.454Z,88884.00
2024-04-07T03:05:24.446Z,88887.00
2024-04-07T03:06:24.446Z,88885.00
2024-04-07T03:07:24.457Z,88887.00
2024-04-07T03:08:24.447Z,88885.00
2024-04-07T03:09:24.456Z,88885.00
2024-04-07T03:10:24.459Z,88890.00
2024-04-07T03:11:24.468Z,88894.00
2024-04-07T03:12:24.466Z,88892.00
2024-04-07T03:13:24.470Z,88888.00
2024-04-07T03:14:24.456Z,88892.00
2024-04-07T03:15:24.464Z,88891.00
2024-04-07T03:16:24.466Z,88886.00
2024-04-07T03:17:24.508Z,88885.00
2024-04-07T03:18:24.565Z,88887.00
2024-04-07T03:19:24.576Z,88892.00
2024-04-07T03:20:24.620Z,88897.00
2024-04-07T03:21:24.648Z,88890.00
2024-04-07T03:22:24.647Z,88894.00
2024-04-07T03:23:24.665Z,88885.00
2024-04-07T03:24:24.651Z,88888.00
2024-04-07T03:25:24.669Z,88882.00
2024-04-07T03:26:24.662Z,88888.00
2024-04-07T03:27:24.665Z,88891.00
2024-04-07T03:28:24.657Z,88896.00
2024-04-07T03:29:24.655Z,88897.00
2024-04-07T03:30:24.662Z,88895.00
2024-04-07T03:31:24.665Z,88896.00
2024-04-07T03:32:24.706Z,88896.00
2024-04-07T03:33:24.668Z,88898.00
2024-04-07T03:34:24.677Z,88894.00
2024-04-07T03:35:24.684Z,88890.00
2024-04-07T03:36:24.666Z,88891.00
2024-04-07T03:37:24.684Z,88877.00
2024-04-07T03:38:24.678Z,88882.00
2024-04-07T03:39:24.699Z,88886.00
2024-04-07T03:40:24.718Z,88885.00
2024-04-07T03:41:24.762Z,88887.00
2024-04-07T03:42:24.796Z,88886.00
2024-04-07T03:43:24.839Z,88888.00
2024-04-07T03:44:24.883Z,88882.00
2024-04-07T03:45:24.934Z,88888.00
2024-04-07T03:46:24.979Z,88883.00
2024-04-07T03:47:25.033Z,88886.00
2024-04-07T03:48:25.054Z,88888.00
2024-04-07T03:49:25.093Z,88887.00
2024-04-07T03:50:25.137Z,88891.00
2024-04-07T03:51:25.202Z,88892.00
2024-04-07T03:52:25.272Z,88889.00
2024-04-07T03:53:25.291Z,88890.00
2024-04-07T03:54:25.367Z,88895.00
2024-04-07T03:55:25.408Z,88898.00
2024-04-07T03:56:25.454Z,88896.00
2024-04-07T03:57:25.542Z,88899.00
2024-04-07T03:58:25.580Z,88890.00
2024-04-07T03:59:25.635Z,88894.00
2024-04-07T04:00:25.684Z,88894.00
2024-04-07T04:01:25.751Z,88896.00
2024-04-07T04:02:25.811Z,88895.00
2024-04-07T04:03:27.216Z,88893.00
2024-04-07T04:04:25.915Z,88891.00
2024-04-07T04:05:25.981Z,88894.00
2024-04-07T04:06:26.053Z,88898.00
2024-04-07T04:07:26.125Z,88892.00
2024-04-07T04:08:26.186Z,88891.00
2024-04-07T04:09:26.239Z,88900.00
2024-04-07T04:10:26.311Z,88899.00
2024-04-07T04:11:26.383Z,88897.00
2024-04-07T04:12:26.437Z,88893.00
2024-04-07T04:13:26.519Z,88900.00
2024-04-07T04:14:26.573Z,88901.00
2024-04-07T04:15:26.643Z,88900.00
2024-04-07T04:16:26.703Z,88901.00
2024-04-07T04:17:26.779Z,88899.00
2024-04-07T04:18:26.842Z,88904.00
2024-04-07T04:19:34.048Z,88904.00
2024-04-07T04:20:34.058Z,88905.00
2024-04-07T04:21:34.052Z,88909.00
2024-04-07T04:22:34.054Z,88907.00
2024-04-07T04:23:34.047Z,88904.00
2024-04-07T04:24:34.054Z,88907.00
2024-04-07T04:25:34.073Z,88905.00
2024-04-07T04:26:34.074Z,88905.00
2024-04-07T04:27:34.069Z,88911.00
2024-04-07T04:28:34.054Z,88913.00
2024-04-07T04:29:34.068Z,88910.00
2024-04-07T04:30:34.059Z,88912.00
2024-04-07T04:31:41.269Z,88916.00
2024-04-07T04:32:41.271Z,88921.00
2024-04-07T04:33:41.253Z,88922.00
2024-04-07T04:34:41.283Z,88925.00
2024-04-07T04:35:41.276Z,88924.00
2024-04-07T04:36:41.270Z,88929.00
2024-04-07T04:37:41.315Z,88925.00
2024-04-07T04:38:41.273Z,88931.00
2024-04-07T04:39:41.265Z,88934.00
2024-04-07T04:40:41.296Z,88932.00
2024-04-07T04:41:41.277Z,88933.00
2024-04-07T04:42:41.288Z,88933.00
2024-04-07T04:43:41.295Z,88933.00
2024-04-07T04:44:41.303Z,88930.00
2024-04-07T04:45:41.297Z,88930.00
2024-04-07T04:46:41.292Z,88933.00
2024-04-07T04:47:41.299Z,88933.00
2024-04-07T04:48:41.288Z,88935.00
2024-04-07T04:49:41.289Z,88936.00
2024-04-07T04:50:41.295Z,88932.00
2024-04-07T04:51:41.304Z,88937.00
2024-04-07T04:52:41.309Z,88936.00
2024-04-07T04:53:41.304Z,88939.00
2024-04-07T04:54:41.295Z,88939.00
2024-04-07T04:55:41.297Z,88943.00
2024-04-07T04:56:41.306Z,88941.00
2024-04-07T04:57:41.330Z,88943.00
2024-04-07T04:58:41.401Z,88945.00
2024-04-07T04:59:41.439Z,88944.00
2024-04-07T05:00:41.478Z,88946.00
2024-04-07T05:01:41.457Z,88949.00
2024-04-07T05:02:41.482Z,88946.00
2024-04-07T05:03:41.487Z,88950.00
2024-04-07T05:04:41.499Z,88950.00
2024-04-07T05:05:41.503Z,88952.00
2024-04-07T05:06:41.505Z,88952.00
2024-04-07T05:07:41.535Z,88952.00
2024-04-07T05:08:41.536Z,88952.00
2024-04-07T05:09:41.536Z,88951.00
2024-04-07T05:10:41.621Z,88949.00
2024-04-07T05:11:41.593Z,88949.00
2024-04-07T05:12:41.615Z,88950.00
2024-04-07T05:13:41.618Z,88948.00
2024-04-07T05:14:41.616Z,88946.00
2024-04-07T05:15:41.634Z,88945.00
2024-04-07T05:16:41.635Z,88945.00
2024-04-07T05:17:43.811Z,88948.00
2024-04-07T05:18:41.624Z,88948.00
2024-04-07T05:19:41.628Z,88951.00
2024-04-07T05:20:41.631Z,88951.00
2024-04-07T05:21:41.632Z,88951.00
2024-04-07T05:22:41.632Z,88950.00
2024-04-07T05:23:41.634Z,88949.00
2024-04-07T05:24:42.410Z,88948.00
2024-04-07T05:25:41.625Z,88946.00
2024-04-07T05:26:41.651Z,88953.00
2024-04-07T05:27:41.653Z,88952.00
2024-04-07T05:28:41.652Z,88952.00
2024-04-07T05:29:41.640Z,88953.00
2024-04-07T05:30:41.645Z,88953.00
2024-04-07T05:31:41.637Z,88953.00
2024-04-07T05:32:41.657Z,88953.00
2024-04-07T05:33:41.644Z,88952.00
2024-04-07T05:34:41.673Z,88951.00
2024-04-07T05:35:41.656Z,88952.00
2024-04-07T05:36:41.659Z,88952.00
2024-04-07T05:37:41.716Z,88953.00
2024-04-07T05:38:41.662Z,88953.00
2024-04-07T05:39:41.669Z,88950.00
2024-04-07T05:40:41.658Z,88953.00
2024-04-07T05:41:41.666Z,88952.00
2024-04-07T05:42:41.676Z,88954.00
2024-04-07T05:43:41.666Z,88953.00
2024-04-07T05:44:41.677Z,88953.00
2024-04-07T05:45:41.676Z,88951.00
2024-04-07T05:46:41.670Z,88949.00
2024-04-07T05:47:41.672Z,88948.00
2024-04-07T05:48:41.693Z,88947.00
2024-04-07T05:49:41.693Z,88945.00
2024-04-07T05:50:41.705Z,88945.00
2024-04-07T05:51:41.680Z,88945.00
2024-04-07T05:52:41.709Z,88944.00
2024-04-07T05:53:41.700Z,88941.00
2024-04-07T05:54:41.700Z,88942.00
2024-04-07T05:55:41.696Z,88940.00
2024-04-07T05:56:41.715Z,88942.00
2024-04-07T05:57:41.764Z,88941.00
2024-04-07T05:58:41.945Z,88938.00
2024-04-07T05:59:41.706Z,88939.00
2024-04-07T06:00:41.723Z,88939.00
2024-04-07T06:01:41.692Z,88938.00
2024-04-07T06:02:41.708Z,88939.00
2024-04-07T06:03:41.707Z,88937.00
2024-04-07T06:04:41.711Z,88940.00
2024-04-07T06:05:41.712Z,88937.00
2024-04-07T06:06:41.714Z,88934.00
2024-04-07T06:07:45.122Z,88932.00
2024-04-07T06:08:41.727Z,88929.00
2024-04-07T06:09:41.722Z,88927.00
2024-04-07T06:10:41.755Z,88931.00
2024-04-07T06:11:41.926Z,88932.00
2024-04-07T06:12:41.757Z,88929.00
2024-04-07T06:13:41.730Z,88925.00
2024-04-07T06:14:41.805Z,88929.00
2024-04-07T06:15:41.733Z,88929.00
2024-04-07T06:16:41.738Z,88924.00
2024-04-07T06:17:41.744Z,88927.00
2024-04-07T06:18:41.748Z,88928.00
2024-04-07T06:19:41.756Z,88926.00
2024-04-07T06:20:41.756Z,88926.00
2024-04-07T06:21:41.755Z,88927.00
2024-04-07T06:22:41.763Z,88920.00
2024-04-07T06:23:41.756Z,88918.00
2024-04-07T06:24:41.856Z,88922.00
2024-04-07T06:25:41.754Z,88921.00
2024-04-07T06:26:41.758Z,88917.00
2024-04-07T06:27:41.768Z,88922.00
2024-04-07T06:28:41.774Z,88922.00
2024-04-07T06:29:41.764Z,88922.00
2024-04-07T06:30:41.759Z,88928.00
2024-04-07T06:31:41.763Z,88928.00
2024-04-07T06:32:41.777Z,88931.00
2024-04-07T06:33:41.758Z,88932.00
2024-04-07T06:34:41.763Z,88934.00
2024-04-07T06:35:41.770Z,88931.00
2024-04-07T06:36:41.769Z,88927.00
2024-04-07T06:37:41.785Z,88931.00
2024-04-07T06:38:41.784Z,88928.00
2024-04-07T06:39:41.805Z,88922.00
2024-04-07T06:40:41.785Z,88923.00
2024-04-07T06:41:41.791Z,88926.00
2024-04-07T06:42:41.888Z,88929.00
2024-04-07T06:43:41.783Z,88930.00
2024-04-07T06:44:41.784Z,88929.00
2024-04-07T06:45:41.892Z,88930.00
2024-04-07T06:46:41.802Z,88932.00
2024-04-07T06:47:41.802Z,88934.00
2024-04-07T06:48:41.790Z,88930.00
2024-04-07T06:49:41.790Z,88927.00
2024-04-07T06:50:41.801Z,88927.00
2024-04-07T06:51:41.797Z,88929.00
2024-04-07T06:52:41.806Z,88929.00
2024-04-07T06:53:41.812Z,88930.00
2024-04-07T06:54:41.830Z,88927.00
2024-04-07T06:55:41.930Z,88931.00
2024-04-07T06:56:41.904Z,88929.00
2024-04-07T06:57:41.946Z,88930.00
2024-04-07T06:58:42.001Z,88928.00
2024-04-07T06:59:42.025Z,88923.00
2024-04-07T07:00:42.071Z,88923.00
2024-04-07T07:01:42.124Z,88924.00
2024-04-07T07:02:42.172Z,88929.00
2024-04-07T07:03:42.226Z,88922.00
2024-04-07T07:04:42.291Z,88925.00
2024-04-07T07:05:42.347Z,88924.00
2024-04-07T07:06:42.413Z,88924.00
2024-04-07T07:07:42.492Z,88921.00
2024-04-07T07:08:42.525Z,88922.00
2024-04-07T07:09:42.589Z,88916.00
2024-04-07T07:10:42.648Z,88917.00
2024-04-07T07:11:42.701Z,88914.00
2024-04-07T07:12:42.775Z,88915.00
2024-04-07T07:13:42.822Z,88914.00
2024-04-07T07:14:42.887Z,88909.00
2024-04-07T07:15:42.962Z,88911.00
2024-04-07T07:16:43.004Z,88910.00
2024-04-07T07:17:43.082Z,88911.00
2024-04-07T07:18:43.146Z,88912.00
2024-04-07T07:19:43.210Z,88910.00
2024-04-07T07:20:43.264Z,88909.00
2024-04-07T07:21:43.331Z,88910.00
2024-04-07T07:22:43.423Z,88910.00
2024-04-07T07:23:43.479Z,88909.00
2024-04-07T07:24:43.558Z,88908.00
2024-04-07T07:25:43.615Z,88909.00
2024-04-07T07:26:43.704Z,88909.00
2024-04-07T07:27:43.743Z,88908.00
2024-04-07T07:28:43.828Z,88912.00
2024-04-07T07:29:43.888Z,88913.00
2024-04-07T07:30:43.927Z,88913.00
2024-04-07T07:31:43.995Z,88911.00
2024-04-07T07:32:44.075Z,88914.00
2024-04-07T07:33:44.106Z,88913.00
2024-04-07T07:34:44.162Z,88918.00
2024-04-07T07:35:44.225Z,88916.00
2024-04-07T07:36:44.286Z,88918.00
2024-04-07T07:37:44.350Z,88917.00
2024-04-07T07:38:44.415Z,88918.00
2024-04-07T07:39:44.490Z,88918.00
2024-04-07T07:40:44.545Z,88918.00
2024-04-07T07:41:44.620Z,88918.00
2024-04-07T07:42:44.657Z,88920.00
2024-04-07T07:43:44.728Z,88921.00
2024-04-07T07:44:44.786Z,88923.00
2024-04-07T07:45:44.831Z,88925.00
2024-04-07T07:46:44.904Z,88928.00
2024-04-07T07:47:44.928Z,88926.00
2024-04-07T07:48:44.975Z,88926.00
2024-04-07T07:49:45.037Z,88926.00
2024-04-07T07:50:45.054Z,88924.00
2024-04-07T07:51:45.101Z,88922.00
2024-04-07T07:52:45.116Z,88922.00
2024-04-07T07:53:45.132Z,88924.00
2024-04-07T07:54:45.189Z,88922.00
2024-04-07T07:55:45.206Z,88924.00
2024-04-07T07:56:45.222Z,88924.00
2024-04-07T07:57:45.283Z,88924.00
2024-04-07T07:58:45.331Z,88922.00
2024-04-07T07:59:45.329Z,88918.00
2024-04-07T08:00:45.342Z,88917.00
2024-04-07T08:01:45.377Z,88916.00
2024-04-07T08:02:45.402Z,88913.00
2024-04-07T08:03:45.399Z,88915.00
2024-04-07T08:04:45.421Z,88915.00
2024-04-07T08:05:45.409Z,88915.00
2024-04-07T08:06:45.975Z,88916.00
2024-04-07T08:07:45.469Z,88914.00
2024-04-07T08:08:45.453Z,88913.00
2024-04-07T08:09:45.469Z,88910.00
2024-04-07T08:10:45.461Z,88913.00
2024-04-07T08:11:45.507Z,88915.00
2024-04-07T08:12:45.536Z,88916.00
2024-04-07T08:13:45.564Z,88916.00
2024-04-07T08:14:45.603Z,88919.00
2024-04-07T08:15:45.624Z,88917.00
2024-04-07T08:16:45.647Z,88916.00
2024-04-07T08:17:45.639Z,88918.00
2024-04-07T08:18:45.646Z,88917.00
2024-04-07T08:19:45.674Z,88912.00
2024-04-07T08:20:45.724Z,88916.00
2024-04-07T08:21:45.727Z,88912.00
2024-04-07T08:22:45.766Z,88912.00
2024-04-07T08:23:45.751Z,88910.00
2024-04-07T08:24:45.733Z,88908.00
2024-04-07T08:25:45.794Z,88911.00
2024-04-07T08:26:45.733Z,88910.00
2024-04-07T08:27:45.737Z,88910.00
2024-04-07T08:28:45.738Z,88912.00
2024-04-07T08:29:45.775Z,88910.00
2024-04-07T08:30:45.752Z,88909.00
2024-04-07T08:31:45.747Z,88911.00
2024-04-07T08:32:45.787Z,88911.00
2024-04-07T08:33:45.748Z,88912.00
2024-04-07T08:34:45.751Z,88910.00
2024-04-07T08:35:45.757Z,88910.00
2024-04-07T08:36:45.772Z,88913.00
2024-04-07T08:37:45.770Z,88910.00
2024-04-07T08:38:45.779Z,88909.00
2024-04-07T08:39:45.778Z,88909.00
2024-04-07T08:40:45.772Z,88905.00
2024-04-07T08:41:45.757Z,88905.00
2024-04-07T08:42:45.758Z,88902.00
2024-04-07T08:43:45.773Z,88898.00
2024-04-07T08:44:45.772Z,88897.00
2024-04-07T08:45:45.773Z,88897.00
2024-04-07T08:46:45.758Z,88898.00
2024-04-07T08:47:45.779Z,88896.00
2024-04-07T08:48:45.800Z,88895.00
2024-04-07T08:49:45.771Z,88891.00
2024-04-07T08:50:45.769Z,88891.00
2024-04-07T08:51:45.771Z,88890.00
2024-04-07T08:52:45.823Z,88892.00
2024-04-07T08:53:45.884Z,88888.00
2024-04-07T08:54:45.949Z,88888.00
2024-04-07T08:55:46.020Z,88885.00
2024-04-07T08:56:46.078Z,88884.00
2024-04-07T08:57:46.162Z,88884.00
2024-04-07T08:58:46.226Z,88881.00
2024-04-07T08:59:46.295Z,88882.00
2024-04-07T09:00:46.354Z,88881.00
2024-04-07T09:01:46.437Z,88879.00
2024-04-07T09:02:46.485Z,88880.00
2024-04-07T09:03:46.537Z,88878.00
2024-04-07T09:04:46.582Z,88879.00
2024-04-07T09:05:46.673Z,88878.00
2024-04-07T09:06:46.706Z,88877.00
2024-04-07T09:07:46.746Z,88874.00
2024-04-07T09:08:46.837Z,88872.00
2024-04-07T09:09:46.851Z,88872.00
2024-04-07T09:10:46.897Z,88868.00
2024-04-07T09:11:46.932Z,88867.00
2024-04-07T09:12:47.003Z,88866.00
2024-04-07T09:13:47.035Z,88868.00
2024-04-07T09:14:47.034Z,88866.00
2024-04-07T09:15:47.038Z,88861.00
2024-04-07T09:16:47.041Z,88860.00
2024-04-07T09:17:47.062Z,88857.00
2024-04-07T09:18:47.051Z,88853.00
2024-04-07T09:19:47.036Z,88853.00
2024-04-07T09:20:47.032Z,88852.00
2024-04-07T09:21:47.043Z,88852.00
2024-04-07T09:22:47.044Z,88848.00
2024-04-07T09:23:47.042Z,88849.00
2024-04-07T09:24:47.076Z,88849.00
2024-04-07T09:25:49.221Z,88850.00
2024-04-07T09:26:47.049Z,88847.00
2024-04-07T09:27:47.074Z,88849.00
2024-04-07T09:28:47.064Z,88848.00
2024-04-07T09:29:47.043Z,88849.00
2024-04-07T09:30:47.046Z,88847.00
2024-04-07T09:31:47.063Z,88848.00
2024-04-07T09:32:47.056Z,88846.00
2024-04-07T09:33:47.139Z,88844.00
2024-04-07T09:34:47.179Z,88843.00
2024-04-07T09:35:47.236Z,88844.00
2024-04-07T09:36:47.314Z,88842.00
2024-04-07T09:37:47.344Z,88843.00
2024-04-07T09:38:47.396Z,88839.00
2024-04-07T09:39:47.455Z,88840.00
2024-04-07T09:40:47.474Z,88840.00
2024-04-07T09:41:47.539Z,88841.00
2024-04-07T09:42:47.584Z,88839.00
2024-04-07T09:43:47.653Z,88838.00
2024-04-07T09:44:47.701Z,88838.00
2024-04-07T09:45:47.736Z,88836.00
2024-04-07T09:46:47.811Z,88836.00
2024-04-07T09:47:47.854Z,88834.00
2024-04-07T09:48:47.867Z,88834.00
2024-04-07T09:49:47.862Z,88834.00
2024-04-07T09:50:47.870Z,88833.00
2024-04-07T09:51:47.861Z,88831.00
2024-04-07T09:52:47.869Z,88834.00
2024-04-07T09:53:47.875Z,88832.00
2024-04-07T09:54:47.874Z,88831.00
2024-04-07T09:55:47.874Z,88829.00
2024-04-07T09:56:47.898Z,88830.00
2024-04-07T09:57:47.879Z,88829.00
2024-04-07T09:58:47.882Z,88830.00
2024-04-07T09:59:47.890Z,88830.00
2024-04-07T10:00:47.897Z,88828.00
2024-04-07T10:01:47.907Z,88828.00
2024-04-07T10:02:47.934Z,88829.00
2024-04-07T10:03:47.968Z,88825.00
2024-04-07T10:04:47.986Z,88825.00
2024-04-07T10:05:48.004Z,88824.00
2024-04-07T10:06:48.006Z,88823.00
2024-04-07T10:07:47.994Z,88822.00
2024-04-07T10:08:48.013Z,88823.00
2024-04-07T10:09:48.008Z,88822.00
2024-04-07T10:10:58.517Z,88820.00
2024-04-07T10:11:48.009Z,88820.00
2024-04-07T10:12:48.022Z,88818.00
2024-04-07T10:13:48.023Z,88818.00
2024-04-07T10:14:48.015Z,88818.00
2024-04-07T10:15:48.027Z,88821.00
2024-04-07T10:16:48.009Z,88818.00
2024-04-07T10:17:48.015Z,88816.00
2024-04-07T10:18:48.018Z,88815.00
2024-04-07T10:19:48.020Z,88813.00
2024-04-07T10:20:48.019Z,88812.00
2024-04-07T10:21:48.017Z,88811.00
2024-04-07T10:22:48.018Z,88808.00
2024-04-07T10:23:49.013Z,88805.00
2024-04-07T10:24:48.051Z,88804.00
2024-04-07T10:25:48.027Z,88805.00
2024-04-07T10:26:48.020Z,88805.00
2024-04-07T10:27:48.023Z,88804.00
2024-04-07T10:28:48.029Z,88804.00
2024-04-07T10:29:48.041Z,88805.00
2024-04-07T10:30:48.049Z,88805.00
2024-04-07T10:31:48.048Z,88804.00
2024-04-07T10:32:48.038Z,88804.00
2024-04-07T10:33:48.039Z,88801.00
2024-04-07T10:34:48.035Z,88800.00
2024-04-07T10:35:48.041Z,88800.00
2024-04-07T10:36:48.040Z,88797.00
2024-04-07T10:37:48.149Z,88796.00
2024-04-07T10:38:48.117Z,88797.00
2024-04-07T10:39:48.164Z,88795.00
2024-04-07T10:40:48.197Z,88796.00
2024-04-07T10:41:48.248Z,88795.00
2024-04-07T10:42:48.331Z,88795.00
2024-04-07T10:43:48.391Z,88796.00
2024-04-07T10:44:48.464Z,88797.00
2024-04-07T10:45:48.522Z,88797.00
2024-04-07T10:46:48.577Z,88801.00
2024-04-07T10:47:48.658Z,88806.00
2024-04-07T10:48:48.721Z,88808.00
2024-04-07T10:49:48.798Z,88810.00
2024-04-07T10:50:48.846Z,88814.00
2024-04-07T10:51:48.944Z,88814.00
2024-04-07T10:52:48.990Z,88815.00
2024-04-07T10:53:49.064Z,88819.00
2024-04-07T10:54:49.124Z,88819.00
2024-04-07T10:55:49.183Z,88822.00
2024-04-07T10:56:49.252Z,88819.00
2024-04-07T10:57:49.313Z,88819.00
2024-04-07T10:58:49.369Z,88817.00
2024-04-07T10:59:50.869Z,88817.00
2024-04-07T11:00:49.593Z,88815.00
2024-04-07T11:01:49.659Z,88816.00
2024-04-07T11:02:49.703Z,88814.00
2024-04-07T11:03:49.768Z,88810.00
2024-04-07T11:04:49.820Z,88811.00
2024-04-07T11:05:49.898Z,88810.00
2024-04-07T11:06:49.937Z,88810.00
2024-04-07T11:07:50.014Z,88813.00
2024-04-07T11:08:50.075Z,88813.00
2024-04-07T11:09:50.112Z,88813.00
2024-04-07T11:10:50.169Z,88812.00
2024-04-07T11:11:50.233Z,88813.00
2024-04-07T11:12:50.278Z,88811.00
2024-04-07T11:13:50.334Z,88808.00
2024-04-07T11:14:50.390Z,88810.00
2024-04-07T11:15:50.436Z,88806.00
2024-04-07T11:16:50.465Z,88803.00
2024-04-07T11:17:50.549Z,88808.00
2024-04-07T11:18:50.551Z,88804.00
2024-04-07T11:19:50.599Z,88805.00
2024-04-07T11:20:50.651Z,88803.00
2024-04-07T11:21:50.689Z,88802.00
2024-04-07T11:22:50.736Z,88801.00
2024-04-07T11:23:50.775Z,88802.00
2024-04-07T11:24:50.795Z,88797.00
2024-04-07T11:25:50.802Z,88796.00
2024-04-07T11:26:50.800Z,88796.00
2024-04-07T11:27:50.802Z,88796.00
2024-04-07T11:28:50.805Z,88793.00
2024-04-07T11:29:50.807Z,88796.00
2024-04-07T11:30:50.802Z,88795.00
2024-04-07T11:32:00.548Z,88796.00
2024-04-07T11:32:51.823Z,88794.00
2024-04-07T11:33:50.828Z,88792.00
2024-04-07T11:34:50.834Z,88791.00
2024-04-07T11:35:50.822Z,88790.00
2024-04-07T11:36:50.827Z,88790.00
2024-04-07T11:37:50.828Z,88791.00
2024-04-07T11:38:50.823Z,88789.00
2024-04-07T11:39:56.921Z,88789.00
2024-04-07T11:40:51.844Z,88790.00
2024-04-07T11:41:50.838Z,88790.00
2024-04-07T11:42:50.849Z,88791.00
2024-04-07T11:43:50.853Z,88791.00
2024-04-07T11:44:50.855Z,88790.00